Impacts METAR Board
IDs:

KLGA - New York/La Guardia, NY, US

Updated at: 1900 UTC 23 Sep 2018
Potential Impact None Slight Moderate High
Time 23/07Z 23/08Z 23/09Z 23/10Z 23/11Z 23/12Z 23/13Z 23/14Z 23/15Z 23/16Z 23/17Z 23/18Z 23/19Z
Temp63 63 62 62 62 62 63 62 63 65 66 67 67
Dewpt51 50 48 49 49 50 50 50 50 52 53 55 55
Altim30.19 30.21 30.21 30.21 30.22 30.22 30.23 30.25 30.25 30.25 30.24 30.23 30.21
VIS10 10 10 10 10 10 10 10 10 10 10 10 10
CIG160 160 160 100 120 110 34 34 22 26 22 22 50
CoverBKNBKNBKNOVCBKNBKNBKNBKNBKNOVCOVCBKNBKN
FltCatVFRVFRVFRVFRVFRVFRVFRVFRMVFRMVFRMVFRMVFRVFR
WX-----------RA--------------
WDir1035036030202010303050506050
WSpd5 7 6 7 5 6 7 7 9 11 12 9 7
WGst-- -- -- -- -- -- -- -- -- -- -- -- --
Raw hourly METARs
KLGA 230651Z 01005KT 10SM BKN160 17/11 A3019 RMK AO2 SLP224 T01720106 $
KLGA 230751Z 35007KT 10SM BKN160 17/10 A3021 RMK AO2 SLP229 T01720100 $
KLGA 230851Z 36006KT 10SM BKN160 17/09 A3021 RMK AO2 SLP230 T01670089 53003 $
KLGA 230951Z 03007KT 10SM BKN100 OVC110 17/09 A3021 RMK AO2 SLP230 T01670094 $
KLGA 231051Z 02005KT 10SM FEW025 SCT100 BKN120 17/09 A3022 RMK AO2 SLP232 T01670094 $
KLGA 231151Z 02006KT 10SM -RA FEW035 SCT041 BKN110 17/10 A3022 RMK AO2 RAB47 SLP234 P0000 60000 T01670100 10178 20167 53004 $
KLGA 231251Z 01007KT 10SM SCT025 BKN034 BKN100 17/10 A3023 RMK AO2 RAE01 SLP237 P0000 T01720100 $
KLGA 231351Z 03007KT 10SM SCT026 SCT029 BKN034 BKN170 17/10 A3025 RMK AO2 SLP243 T01670100 $
KLGA 231451Z 03009KT 10SM BKN022 BKN033 BKN090 BKN250 17/10 A3025 RMK AO2 SLP245 60000 T01720100 51011 $
KLGA 231551Z 05011KT 10SM BKN026 BKN030 BKN040 OVC170 18/11 A3025 RMK AO2 SLP243 T01830111 $
KLGA 231651Z 05012KT 10SM BKN022 BKN028 BKN090 OVC170 19/12 A3024 RMK AO2 SLP238 T01890117 $
KLGA 231751Z 06009KT 10SM BKN022 BKN029 BKN090 BKN170 19/13 A3023 RMK AO2 SLP235 60000 T01940128 10194 20167 58009 $
KLGA 231851Z 05007KT 10SM SCT025 BKN050 BKN150 19/13 A3021 RMK AO2 SLP231 T01940128 $



Page loaded:  19:52 UTC  |   12:52 PM Pacific  |   01:52 PM Mountain  |   02:52 PM Central  |   03:52 PM Eastern

 

ADVISORIES

FORECASTS

FORECASTS

OBSERVATIONS

USER TOOLS

ABOUT US